sensor_id;sensor_type;location;lat;lon;timestamp;temperature;humidity
15133;DHT22;7667;51.232;17.110;2023-05-07T00:02:11;7.70;99.90
15133;DHT22;7667;51.232;17.110;2023-05-07T00:04:38;7.80;99.90
15133;DHT22;7667;51.232;17.110;2023-05-07T00:07:06;7.80;99.90
15133;DHT22;7667;51.232;17.110;2023-05-07T00:09:33;7.80;99.90
15133;DHT22;7667;51.232;17.110;2023-05-07T00:12:01;7.80;99.90
15133;DHT22;7667;51.232;17.110;2023-05-07T00:14:29;7.80;99.90
15133;DHT22;7667;51.232;17.110;2023-05-07T00:16:57;7.80;99.90
15133;DHT22;7667;51.232;17.110;2023-05-07T00:19:24;7.70;99.90
15133;DHT22;7667;51.232;17.110;2023-05-07T00:21:52;7.70;99.90
15133;DHT22;7667;51.232;17.110;2023-05-07T00:24:23;7.70;99.90
15133;DHT22;7667;51.232;17.110;2023-05-07T00:26:51;7.70;99.90
15133;DHT22;7667;51.232;17.110;2023-05-07T00:29:19;7.70;99.90
15133;DHT22;7667;51.232;17.110;2023-05-07T00:31:49;7.70;99.90
15133;DHT22;7667;51.232;17.110;2023-05-07T00:34:17;7.70;99.90
15133;DHT22;7667;51.232;17.110;2023-05-07T00:36:45;7.70;99.90
15133;DHT22;7667;51.232;17.110;2023-05-07T00:39:13;7.70;99.90
15133;DHT22;7667;51.232;17.110;2023-05-07T00:41:41;7.70;99.90
15133;DHT22;7667;51.232;17.110;2023-05-07T00:44:08;7.70;99.90
15133;DHT22;7667;51.232;17.110;2023-05-07T00:46:36;7.70;99.90
15133;DHT22;7667;51.232;17.110;2023-05-07T00:49:03;7.70;99.90
15133;DHT22;7667;51.232;17.110;2023-05-07T00:51:32;7.60;99.90
15133;DHT22;7667;51.232;17.110;2023-05-07T00:54:02;7.60;99.90
15133;DHT22;7667;51.232;17.110;2023-05-07T00:56:30;7.60;99.90
15133;DHT22;7667;51.232;17.110;2023-05-07T00:58:59;7.60;99.90
15133;DHT22;7667;51.232;17.110;2023-05-07T01:01:29;7.60;99.90
15133;DHT22;7667;51.232;17.110;2023-05-07T01:03:56;7.60;99.90
15133;DHT22;7667;51.232;17.110;2023-05-07T01:06:26;7.60;99.90
15133;DHT22;7667;51.232;17.110;2023-05-07T01:08:55;7.60;99.90
15133;DHT22;7667;51.232;17.110;2023-05-07T01:11:24;7.60;99.90
15133;DHT22;7667;51.232;17.110;2023-05-07T01:13:52;7.60;99.90
15133;DHT22;7667;51.232;17.110;2023-05-07T01:16:20;7.60;99.90
15133;DHT22;7667;51.232;17.110;2023-05-07T01:18:48;7.60;99.90
15133;DHT22;7667;51.232;17.110;2023-05-07T01:21:17;7.60;99.90
15133;DHT22;7667;51.232;17.110;2023-05-07T01:23:45;7.60;99.90
15133;DHT22;7667;51.232;17.110;2023-05-07T01:26:14;7.60;99.90
15133;DHT22;7667;51.232;17.110;2023-05-07T01:28:42;7.60;99.90
15133;DHT22;7667;51.232;17.110;2023-05-07T01:31:09;7.60;99.90
15133;DHT22;7667;51.232;17.110;2023-05-07T01:33:38;7.50;99.90
15133;DHT22;7667;51.232;17.110;2023-05-07T01:36:08;7.60;99.90
15133;DHT22;7667;51.232;17.110;2023-05-07T01:38:37;7.60;99.90
15133;DHT22;7667;51.232;17.110;2023-05-07T01:41:07;7.60;99.90
15133;DHT22;7667;51.232;17.110;2023-05-07T01:43:34;7.60;99.90
15133;DHT22;7667;51.232;17.110;2023-05-07T01:46:02;7.60;99.90
15133;DHT22;7667;51.232;17.110;2023-05-07T01:48:31;7.60;99.90
15133;DHT22;7667;51.232;17.110;2023-05-07T01:50:59;7.50;99.90
15133;DHT22;7667;51.232;17.110;2023-05-07T01:53:28;7.50;99.90
15133;DHT22;7667;51.232;17.110;2023-05-07T01:55:55;7.50;99.90
15133;DHT22;7667;51.232;17.110;2023-05-07T01:58:23;7.50;99.90
15133;DHT22;7667;51.232;17.110;2023-05-07T02:00:50;7.50;99.90
15133;DHT22;7667;51.232;17.110;2023-05-07T02:03:18;7.50;99.90
15133;DHT22;7667;51.232;17.110;2023-05-07T02:05:46;7.40;99.90
15133;DHT22;7667;51.232;17.110;2023-05-07T02:08:13;7.40;99.90
15133;DHT22;7667;51.232;17.110;2023-05-07T02:10:41;7.50;99.90
15133;DHT22;7667;51.232;17.110;2023-05-07T02:13:09;7.40;99.90
15133;DHT22;7667;51.232;17.110;2023-05-07T02:15:36;7.40;99.90
15133;DHT22;7667;51.232;17.110;2023-05-07T02:18:07;7.40;99.90
15133;DHT22;7667;51.232;17.110;2023-05-07T02:20:35;7.40;99.90
15133;DHT22;7667;51.232;17.110;2023-05-07T02:23:03;7.40;99.90
15133;DHT22;7667;51.232;17.110;2023-05-07T02:25:30;7.40;99.90
15133;DHT22;7667;51.232;17.110;2023-05-07T02:27:58;7.30;99.90
15133;DHT22;7667;51.232;17.110;2023-05-07T02:30:25;7.30;99.90
15133;DHT22;7667;51.232;17.110;2023-05-07T02:32:53;7.30;99.90
15133;DHT22;7667;51.232;17.110;2023-05-07T02:35:21;7.30;99.90
15133;DHT22;7667;51.232;17.110;2023-05-07T02:37:48;7.30;99.90
15133;DHT22;7667;51.232;17.110;2023-05-07T02:40:16;7.30;99.90
15133;DHT22;7667;51.232;17.110;2023-05-07T02:42:43;7.30;99.90
15133;DHT22;7667;51.232;17.110;2023-05-07T02:45:11;7.30;99.90
15133;DHT22;7667;51.232;17.110;2023-05-07T02:47:40;7.20;99.90
15133;DHT22;7667;51.232;17.110;2023-05-07T02:50:07;7.20;99.90
15133;DHT22;7667;51.232;17.110;2023-05-07T02:52:35;7.20;99.90
15133;DHT22;7667;51.232;17.110;2023-05-07T02:55:03;7.20;99.90
15133;DHT22;7667;51.232;17.110;2023-05-07T02:57:31;7.20;99.90
15133;DHT22;7667;51.232;17.110;2023-05-07T02:59:58;7.20;99.90
15133;DHT22;7667;51.232;17.110;2023-05-07T03:02:26;7.20;99.90
15133;DHT22;7667;51.232;17.110;2023-05-07T03:04:54;7.20;99.90
15133;DHT22;7667;51.232;17.110;2023-05-07T03:07:21;7.20;99.90
15133;DHT22;7667;51.232;17.110;2023-05-07T03:09:48;7.20;99.90
15133;DHT22;7667;51.232;17.110;2023-05-07T03:12:16;7.20;99.90
15133;DHT22;7667;51.232;17.110;2023-05-07T03:14:44;7.20;99.90
15133;DHT22;7667;51.232;17.110;2023-05-07T03:17:11;7.20;99.90
15133;DHT22;7667;51.232;17.110;2023-05-07T03:19:38;7.20;99.90
15133;DHT22;7667;51.232;17.110;2023-05-07T03:22:06;7.20;99.90
15133;DHT22;7667;51.232;17.110;2023-05-07T03:24:33;7.10;99.90
15133;DHT22;7667;51.232;17.110;2023-05-07T03:27:01;7.00;99.90
15133;DHT22;7667;51.232;17.110;2023-05-07T03:29:29;7.00;99.90
15133;DHT22;7667;51.232;17.110;2023-05-07T03:31:56;7.00;99.90
15133;DHT22;7667;51.232;17.110;2023-05-07T03:34:24;7.00;99.90
15133;DHT22;7667;51.232;17.110;2023-05-07T03:36:51;6.90;99.90
15133;DHT22;7667;51.232;17.110;2023-05-07T03:39:19;7.00;99.90
15133;DHT22;7667;51.232;17.110;2023-05-07T03:41:47;6.90;99.90
15133;DHT22;7667;51.232;17.110;2023-05-07T03:44:14;7.00;99.90
15133;DHT22;7667;51.232;17.110;2023-05-07T03:46:42;7.00;99.90
15133;DHT22;7667;51.232;17.110;2023-05-07T03:49:10;7.00;99.90
15133;DHT22;7667;51.232;17.110;2023-05-07T03:51:38;7.00;99.90
15133;DHT22;7667;51.232;17.110;2023-05-07T03:54:05;7.00;99.90
15133;DHT22;7667;51.232;17.110;2023-05-07T03:56:33;7.00;99.90
15133;DHT22;7667;51.232;17.110;2023-05-07T03:59:01;7.00;99.90
15133;DHT22;7667;51.232;17.110;2023-05-07T04:01:28;7.00;99.90
15133;DHT22;7667;51.232;17.110;2023-05-07T04:03:56;7.00;99.90
15133;DHT22;7667;51.232;17.110;2023-05-07T04:06:24;7.00;99.90
15133;DHT22;7667;51.232;17.110;2023-05-07T04:08:51;7.00;99.90
15133;DHT22;7667;51.232;17.110;2023-05-07T04:11:19;7.10;99.90
15133;DHT22;7667;51.232;17.110;2023-05-07T04:13:47;7.20;99.90
15133;DHT22;7667;51.232;17.110;2023-05-07T04:16:14;7.30;99.90
15133;DHT22;7667;51.232;17.110;2023-05-07T04:18:42;7.30;99.90
15133;DHT22;7667;51.232;17.110;2023-05-07T04:21:20;7.30;99.90
15133;DHT22;7667;51.232;17.110;2023-05-07T04:23:48;7.30;99.90
15133;DHT22;7667;51.232;17.110;2023-05-07T04:26:16;7.30;99.90
15133;DHT22;7667;51.232;17.110;2023-05-07T04:28:44;7.30;99.90
15133;DHT22;7667;51.232;17.110;2023-05-07T04:31:11;7.30;99.90
15133;DHT22;7667;51.232;17.110;2023-05-07T04:33:39;7.30;99.90
15133;DHT22;7667;51.232;17.110;2023-05-07T04:36:07;7.30;99.90
15133;DHT22;7667;51.232;17.110;2023-05-07T04:38:34;7.30;99.90
15133;DHT22;7667;51.232;17.110;2023-05-07T04:41:04;7.30;99.90
15133;DHT22;7667;51.232;17.110;2023-05-07T04:43:32;7.40;99.90
15133;DHT22;7667;51.232;17.110;2023-05-07T04:46:00;7.40;99.90
15133;DHT22;7667;51.232;17.110;2023-05-07T04:48:28;7.40;99.90
15133;DHT22;7667;51.232;17.110;2023-05-07T04:50:56;7.50;99.90
15133;DHT22;7667;51.232;17.110;2023-05-07T04:53:23;7.50;99.90
15133;DHT22;7667;51.232;17.110;2023-05-07T04:55:55;7.50;99.90
15133;DHT22;7667;51.232;17.110;2023-05-07T04:58:24;7.50;99.90
15133;DHT22;7667;51.232;17.110;2023-05-07T05:00:52;7.50;99.90
15133;DHT22;7667;51.232;17.110;2023-05-07T05:03:19;7.40;99.90
15133;DHT22;7667;51.232;17.110;2023-05-07T05:05:49;7.40;99.90
15133;DHT22;7667;51.232;17.110;2023-05-07T05:08:18;7.40;99.90
15133;DHT22;7667;51.232;17.110;2023-05-07T05:10:46;7.40;99.90
15133;DHT22;7667;51.232;17.110;2023-05-07T05:13:15;7.30;99.90
15133;DHT22;7667;51.232;17.110;2023-05-07T05:15:43;7.40;99.90
15133;DHT22;7667;51.232;17.110;2023-05-07T05:18:11;7.40;99.90
15133;DHT22;7667;51.232;17.110;2023-05-07T05:20:38;7.40;99.90
15133;DHT22;7667;51.232;17.110;2023-05-07T05:23:07;7.40;99.90
15133;DHT22;7667;51.232;17.110;2023-05-07T05:25:34;7.40;99.90
15133;DHT22;7667;51.232;17.110;2023-05-07T05:28:02;7.40;99.90
15133;DHT22;7667;51.232;17.110;2023-05-07T05:30:30;7.40;99.90
15133;DHT22;7667;51.232;17.110;2023-05-07T05:32:58;7.40;99.90
15133;DHT22;7667;51.232;17.110;2023-05-07T05:35:25;7.30;99.90
15133;DHT22;7667;51.232;17.110;2023-05-07T05:37:53;7.30;99.90
15133;DHT22;7667;51.232;17.110;2023-05-07T05:40:20;7.30;99.90
15133;DHT22;7667;51.232;17.110;2023-05-07T05:42:48;7.40;99.90
15133;DHT22;7667;51.232;17.110;2023-05-07T05:45:15;7.50;99.90
15133;DHT22;7667;51.232;17.110;2023-05-07T05:47:43;7.70;99.90
15133;DHT22;7667;51.232;17.110;2023-05-07T05:50:10;7.70;99.90
15133;DHT22;7667;51.232;17.110;2023-05-07T05:52:39;7.70;99.90
15133;DHT22;7667;51.232;17.110;2023-05-07T05:55:08;7.80;99.90
15133;DHT22;7667;51.232;17.110;2023-05-07T05:57:36;7.90;99.90
15133;DHT22;7667;51.232;17.110;2023-05-07T06:00:04;8.10;99.90
15133;DHT22;7667;51.232;17.110;2023-05-07T06:02:32;8.10;99.90
15133;DHT22;7667;51.232;17.110;2023-05-07T06:05:00;8.10;99.90
15133;DHT22;7667;51.232;17.110;2023-05-07T06:07:27;8.10;99.90
15133;DHT22;7667;51.232;17.110;2023-05-07T06:09:55;8.10;99.90
15133;DHT22;7667;51.232;17.110;2023-05-07T06:12:22;8.00;99.90
15133;DHT22;7667;51.232;17.110;2023-05-07T06:14:50;7.90;99.90
15133;DHT22;7667;51.232;17.110;2023-05-07T06:17:18;7.80;99.90
15133;DHT22;7667;51.232;17.110;2023-05-07T06:19:47;7.70;99.90
15133;DHT22;7667;51.232;17.110;2023-05-07T06:22:15;7.50;99.90
15133;DHT22;7667;51.232;17.110;2023-05-07T06:24:42;7.60;99.90
15133;DHT22;7667;51.232;17.110;2023-05-07T06:27:10;7.70;99.90
15133;DHT22;7667;51.232;17.110;2023-05-07T06:29:38;7.60;99.90
15133;DHT22;7667;51.232;17.110;2023-05-07T06:32:12;7.70;99.90
15133;DHT22;7667;51.232;17.110;2023-05-07T06:34:41;7.80;99.90
15133;DHT22;7667;51.232;17.110;2023-05-07T06:37:08;7.80;99.90
15133;DHT22;7667;51.232;17.110;2023-05-07T06:39:36;7.80;99.90
15133;DHT22;7667;51.232;17.110;2023-05-07T06:42:04;7.80;99.90
15133;DHT22;7667;51.232;17.110;2023-05-07T06:44:31;7.90;99.90
15133;DHT22;7667;51.232;17.110;2023-05-07T06:46:59;7.80;99.90
15133;DHT22;7667;51.232;17.110;2023-05-07T06:49:27;7.80;99.90
15133;DHT22;7667;51.232;17.110;2023-05-07T06:51:54;7.80;99.90
15133;DHT22;7667;51.232;17.110;2023-05-07T06:54:22;7.80;99.90
15133;DHT22;7667;51.232;17.110;2023-05-07T06:56:50;7.80;99.90
15133;DHT22;7667;51.232;17.110;2023-05-07T06:59:17;7.90;99.90
15133;DHT22;7667;51.232;17.110;2023-05-07T07:01:46;7.90;99.90
15133;DHT22;7667;51.232;17.110;2023-05-07T07:04:13;7.80;99.90
15133;DHT22;7667;51.232;17.110;2023-05-07T07:06:41;7.70;99.90
15133;DHT22;7667;51.232;17.110;2023-05-07T07:09:09;7.80;99.90
15133;DHT22;7667;51.232;17.110;2023-05-07T07:11:36;7.70;99.90
15133;DHT22;7667;51.232;17.110;2023-05-07T07:14:05;7.70;99.90
15133;DHT22;7667;51.232;17.110;2023-05-07T07:16:32;7.90;99.90
15133;DHT22;7667;51.232;17.110;2023-05-07T07:19:00;8.00;99.90
15133;DHT22;7667;51.232;17.110;2023-05-07T07:21:28;8.10;99.90
15133;DHT22;7667;51.232;17.110;2023-05-07T07:23:55;8.40;99.90
15133;DHT22;7667;51.232;17.110;2023-05-07T07:26:23;8.70;99.90
15133;DHT22;7667;51.232;17.110;2023-05-07T07:28:50;8.80;99.90
15133;DHT22;7667;51.232;17.110;2023-05-07T07:31:18;9.00;99.90
15133;DHT22;7667;51.232;17.110;2023-05-07T07:33:45;9.00;99.90
15133;DHT22;7667;51.232;17.110;2023-05-07T07:36:13;8.80;99.90
15133;DHT22;7667;51.232;17.110;2023-05-07T07:38:40;8.50;99.90
15133;DHT22;7667;51.232;17.110;2023-05-07T07:41:08;8.50;99.90
15133;DHT22;7667;51.232;17.110;2023-05-07T07:43:36;8.50;99.90
15133;DHT22;7667;51.232;17.110;2023-05-07T07:46:04;8.40;99.90
15133;DHT22;7667;51.232;17.110;2023-05-07T07:48:31;8.30;99.90
15133;DHT22;7667;51.232;17.110;2023-05-07T07:50:59;8.30;99.90
15133;DHT22;7667;51.232;17.110;2023-05-07T07:53:26;8.20;99.90
15133;DHT22;7667;51.232;17.110;2023-05-07T07:55:54;8.20;99.90
15133;DHT22;7667;51.232;17.110;2023-05-07T07:58:25;8.20;99.90
15133;DHT22;7667;51.232;17.110;2023-05-07T08:00:53;8.40;99.90
15133;DHT22;7667;51.232;17.110;2023-05-07T08:03:22;8.30;99.90
15133;DHT22;7667;51.232;17.110;2023-05-07T08:05:51;8.40;99.90
15133;DHT22;7667;51.232;17.110;2023-05-07T08:08:18;8.40;99.90
15133;DHT22;7667;51.232;17.110;2023-05-07T08:10:46;8.40;99.90
15133;DHT22;7667;51.232;17.110;2023-05-07T08:13:17;8.20;99.90
15133;DHT22;7667;51.232;17.110;2023-05-07T08:15:45;8.00;99.90
15133;DHT22;7667;51.232;17.110;2023-05-07T08:18:13;8.00;99.90
15133;DHT22;7667;51.232;17.110;2023-05-07T08:20:40;8.00;99.90
15133;DHT22;7667;51.232;17.110;2023-05-07T08:23:08;8.00;99.90
15133;DHT22;7667;51.232;17.110;2023-05-07T08:25:36;7.90;99.90
15133;DHT22;7667;51.232;17.110;2023-05-07T08:28:04;7.90;99.90
15133;DHT22;7667;51.232;17.110;2023-05-07T08:30:35;8.00;99.90
15133;DHT22;7667;51.232;17.110;2023-05-07T08:33:03;8.00;99.90
15133;DHT22;7667;51.232;17.110;2023-05-07T08:35:30;8.20;99.90
15133;DHT22;7667;51.232;17.110;2023-05-07T08:37:58;8.50;99.90
15133;DHT22;7667;51.232;17.110;2023-05-07T08:40:26;8.60;99.90
15133;DHT22;7667;51.232;17.110;2023-05-07T08:42:54;8.60;99.90
15133;DHT22;7667;51.232;17.110;2023-05-07T08:45:23;8.50;99.90
15133;DHT22;7667;51.232;17.110;2023-05-07T08:47:55;8.40;99.90
15133;DHT22;7667;51.232;17.110;2023-05-07T08:50:26;8.30;99.90
15133;DHT22;7667;51.232;17.110;2023-05-07T08:52:53;8.20;99.90
15133;DHT22;7667;51.232;17.110;2023-05-07T08:55:21;8.20;99.90
15133;DHT22;7667;51.232;17.110;2023-05-07T08:57:50;8.10;99.90
15133;DHT22;7667;51.232;17.110;2023-05-07T09:00:19;8.10;99.90
15133;DHT22;7667;51.232;17.110;2023-05-07T09:02:47;8.00;99.90
15133;DHT22;7667;51.232;17.110;2023-05-07T09:05:15;8.00;99.90
15133;DHT22;7667;51.232;17.110;2023-05-07T09:07:42;8.20;99.90
15133;DHT22;7667;51.232;17.110;2023-05-07T09:10:10;8.40;99.90
15133;DHT22;7667;51.232;17.110;2023-05-07T09:12:39;8.80;99.90
15133;DHT22;7667;51.232;17.110;2023-05-07T09:15:07;9.00;99.90
15133;DHT22;7667;51.232;17.110;2023-05-07T09:17:35;9.10;99.90
15133;DHT22;7667;51.232;17.110;2023-05-07T09:20:04;9.10;99.90
15133;DHT22;7667;51.232;17.110;2023-05-07T09:22:39;9.00;99.90
15133;DHT22;7667;51.232;17.110;2023-05-07T09:25:07;9.00;99.90
15133;DHT22;7667;51.232;17.110;2023-05-07T09:27:36;9.20;99.90
15133;DHT22;7667;51.232;17.110;2023-05-07T09:30:05;9.50;99.90
15133;DHT22;7667;51.232;17.110;2023-05-07T09:32:37;9.90;99.90
15133;DHT22;7667;51.232;17.110;2023-05-07T09:35:05;9.80;99.90
15133;DHT22;7667;51.232;17.110;2023-05-07T09:37:33;9.80;99.90
15133;DHT22;7667;51.232;17.110;2023-05-07T09:40:02;9.40;99.90
15133;DHT22;7667;51.232;17.110;2023-05-07T09:42:30;9.30;99.90
15133;DHT22;7667;51.232;17.110;2023-05-07T09:44:59;9.60;99.90
15133;DHT22;7667;51.232;17.110;2023-05-07T09:47:32;9.60;99.90
15133;DHT22;7667;51.232;17.110;2023-05-07T09:50:05;9.70;99.90
15133;DHT22;7667;51.232;17.110;2023-05-07T09:52:34;10.00;99.90
15133;DHT22;7667;51.232;17.110;2023-05-07T09:55:03;9.90;99.90
15133;DHT22;7667;51.232;17.110;2023-05-07T09:57:34;10.00;99.90
15133;DHT22;7667;51.232;17.110;2023-05-07T10:00:03;9.90;99.90
15133;DHT22;7667;51.232;17.110;2023-05-07T10:02:35;9.90;99.90
15133;DHT22;7667;51.232;17.110;2023-05-07T10:05:04;9.90;99.90
15133;DHT22;7667;51.232;17.110;2023-05-07T10:07:32;9.80;99.90
15133;DHT22;7667;51.232;17.110;2023-05-07T10:10:00;9.90;99.90
15133;DHT22;7667;51.232;17.110;2023-05-07T10:12:29;10.00;99.90
15133;DHT22;7667;51.232;17.110;2023-05-07T10:15:02;10.30;99.90
15133;DHT22;7667;51.232;17.110;2023-05-07T10:17:32;10.60;99.90
15133;DHT22;7667;51.232;17.110;2023-05-07T10:20:04;10.80;99.90
15133;DHT22;7667;51.232;17.110;2023-05-07T10:22:41;11.20;99.90
15133;DHT22;7667;51.232;17.110;2023-05-07T10:25:28;11.10;99.90
15133;DHT22;7667;51.232;17.110;2023-05-07T10:28:04;10.70;99.90
15133;DHT22;7667;51.232;17.110;2023-05-07T10:33:19;10.50;99.90
15133;DHT22;7667;51.232;17.110;2023-05-07T10:35:47;10.40;99.90
15133;DHT22;7667;51.232;17.110;2023-05-07T10:38:15;10.50;99.90
15133;DHT22;7667;51.232;17.110;2023-05-07T10:40:44;10.70;99.90
15133;DHT22;7667;51.232;17.110;2023-05-07T10:43:14;11.00;99.90
15133;DHT22;7667;51.232;17.110;2023-05-07T10:45:41;11.00;99.90
15133;DHT22;7667;51.232;17.110;2023-05-07T10:48:16;10.90;99.90
15133;DHT22;7667;51.232;17.110;2023-05-07T10:50:46;10.90;99.90
15133;DHT22;7667;51.232;17.110;2023-05-07T10:55:47;11.10;99.90
15133;DHT22;7667;51.232;17.110;2023-05-07T10:58:25;10.70;99.90
15133;DHT22;7667;51.232;17.110;2023-05-07T11:01:02;10.60;99.90
15133;DHT22;7667;51.232;17.110;2023-05-07T11:03:29;10.60;99.90
15133;DHT22;7667;51.232;17.110;2023-05-07T11:06:16;10.50;99.90
15133;DHT22;7667;51.232;17.110;2023-05-07T11:11:20;10.60;99.90
15133;DHT22;7667;51.232;17.110;2023-05-07T11:14:27;10.70;99.90
15133;DHT22;7667;51.232;17.110;2023-05-07T11:17:12;11.00;99.90
15133;DHT22;7667;51.232;17.110;2023-05-07T11:25:06;10.50;99.90
15133;DHT22;7667;51.232;17.110;2023-05-07T11:27:34;11.00;99.90
15133;DHT22;7667;51.232;17.110;2023-05-07T11:30:02;11.10;99.90
15133;DHT22;7667;51.232;17.110;2023-05-07T11:32:31;10.80;99.90
15133;DHT22;7667;51.232;17.110;2023-05-07T11:35:00;10.40;99.90
15133;DHT22;7667;51.232;17.110;2023-05-07T11:37:28;10.10;99.90
15133;DHT22;7667;51.232;17.110;2023-05-07T11:40:04;10.00;99.90
15133;DHT22;7667;51.232;17.110;2023-05-07T11:42:35;9.90;99.90
15133;DHT22;7667;51.232;17.110;2023-05-07T11:45:06;10.00;99.90
15133;DHT22;7667;51.232;17.110;2023-05-07T11:47:34;10.40;99.90
15133;DHT22;7667;51.232;17.110;2023-05-07T11:50:07;10.70;99.90
15133;DHT22;7667;51.232;17.110;2023-05-07T11:52:35;10.80;99.90
15133;DHT22;7667;51.232;17.110;2023-05-07T11:55:03;11.00;99.90
15133;DHT22;7667;51.232;17.110;2023-05-07T11:57:33;11.30;99.90
15133;DHT22;7667;51.232;17.110;2023-05-07T12:00:02;11.60;99.90
15133;DHT22;7667;51.232;17.110;2023-05-07T12:02:31;11.80;99.90
15133;DHT22;7667;51.232;17.110;2023-05-07T12:05:00;11.90;99.90
15133;DHT22;7667;51.232;17.110;2023-05-07T12:07:28;12.10;99.90
15133;DHT22;7667;51.232;17.110;2023-05-07T12:09:56;12.10;99.90
15133;DHT22;7667;51.232;17.110;2023-05-07T12:12:23;11.80;99.90
15133;DHT22;7667;51.232;17.110;2023-05-07T12:14:51;11.50;99.90
15133;DHT22;7667;51.232;17.110;2023-05-07T12:17:19;11.20;99.90
15133;DHT22;7667;51.232;17.110;2023-05-07T12:19:47;11.00;99.90
15133;DHT22;7667;51.232;17.110;2023-05-07T12:22:14;10.50;99.90
15133;DHT22;7667;51.232;17.110;2023-05-07T12:24:45;10.50;99.90
15133;DHT22;7667;51.232;17.110;2023-05-07T12:27:15;10.70;99.90
15133;DHT22;7667;51.232;17.110;2023-05-07T12:29:47;11.10;99.90
15133;DHT22;7667;51.232;17.110;2023-05-07T12:32:22;11.90;99.90
15133;DHT22;7667;51.232;17.110;2023-05-07T12:34:50;12.50;99.90
15133;DHT22;7667;51.232;17.110;2023-05-07T12:37:23;12.40;99.90
15133;DHT22;7667;51.232;17.110;2023-05-07T12:40:10;12.00;99.90
15133;DHT22;7667;51.232;17.110;2023-05-07T12:42:40;11.60;99.90
15133;DHT22;7667;51.232;17.110;2023-05-07T12:45:12;11.40;99.90
15133;DHT22;7667;51.232;17.110;2023-05-07T12:47:45;11.10;99.90
15133;DHT22;7667;51.232;17.110;2023-05-07T12:50:14;11.00;99.90
15133;DHT22;7667;51.232;17.110;2023-05-07T12:52:49;10.70;99.90
15133;DHT22;7667;51.232;17.110;2023-05-07T12:55:17;10.80;99.90
15133;DHT22;7667;51.232;17.110;2023-05-07T12:57:48;10.90;99.90
15133;DHT22;7667;51.232;17.110;2023-05-07T13:00:18;11.00;99.90
15133;DHT22;7667;51.232;17.110;2023-05-07T13:03:02;11.10;99.90
15133;DHT22;7667;51.232;17.110;2023-05-07T13:05:29;11.30;99.90
15133;DHT22;7667;51.232;17.110;2023-05-07T13:07:58;11.40;99.90
15133;DHT22;7667;51.232;17.110;2023-05-07T13:10:26;11.10;99.90
15133;DHT22;7667;51.232;17.110;2023-05-07T13:12:54;10.90;99.90
15133;DHT22;7667;51.232;17.110;2023-05-07T13:15:21;10.80;99.90
15133;DHT22;7667;51.232;17.110;2023-05-07T13:17:50;10.70;99.90
15133;DHT22;7667;51.232;17.110;2023-05-07T13:20:17;10.60;99.90
15133;DHT22;7667;51.232;17.110;2023-05-07T13:22:45;10.50;99.90
15133;DHT22;7667;51.232;17.110;2023-05-07T13:25:12;10.50;99.90
15133;DHT22;7667;51.232;17.110;2023-05-07T13:27:40;10.40;99.90
15133;DHT22;7667;51.232;17.110;2023-05-07T13:30:08;10.50;99.90
15133;DHT22;7667;51.232;17.110;2023-05-07T13:32:36;10.40;99.90
15133;DHT22;7667;51.232;17.110;2023-05-07T13:35:03;10.30;99.90
15133;DHT22;7667;51.232;17.110;2023-05-07T13:37:31;10.20;99.90
15133;DHT22;7667;51.232;17.110;2023-05-07T13:39:59;10.10;99.90
15133;DHT22;7667;51.232;17.110;2023-05-07T13:42:26;10.10;99.90
15133;DHT22;7667;51.232;17.110;2023-05-07T13:44:54;10.20;99.90
15133;DHT22;7667;51.232;17.110;2023-05-07T13:47:21;10.30;99.90
15133;DHT22;7667;51.232;17.110;2023-05-07T13:49:50;10.40;99.90
15133;DHT22;7667;51.232;17.110;2023-05-07T13:52:18;10.70;99.90
15133;DHT22;7667;51.232;17.110;2023-05-07T13:54:47;10.90;99.90
15133;DHT22;7667;51.232;17.110;2023-05-07T13:57:14;10.80;99.90
15133;DHT22;7667;51.232;17.110;2023-05-07T13:59:42;10.60;99.90
15133;DHT22;7667;51.232;17.110;2023-05-07T14:02:10;10.60;99.90
15133;DHT22;7667;51.232;17.110;2023-05-07T14:04:38;10.50;99.90
15133;DHT22;7667;51.232;17.110;2023-05-07T14:07:05;10.30;99.90
15133;DHT22;7667;51.232;17.110;2023-05-07T14:09:33;10.10;99.90
15133;DHT22;7667;51.232;17.110;2023-05-07T14:12:00;10.10;99.90
15133;DHT22;7667;51.232;17.110;2023-05-07T14:14:28;10.00;99.90
15133;DHT22;7667;51.232;17.110;2023-05-07T14:16:56;9.80;99.90
15133;DHT22;7667;51.232;17.110;2023-05-07T14:19:24;9.80;99.90
15133;DHT22;7667;51.232;17.110;2023-05-07T14:21:51;9.80;99.90
15133;DHT22;7667;51.232;17.110;2023-05-07T14:24:19;9.90;99.90
15133;DHT22;7667;51.232;17.110;2023-05-07T14:27:03;10.00;99.90
15133;DHT22;7667;51.232;17.110;2023-05-07T14:29:31;10.00;99.90
15133;DHT22;7667;51.232;17.110;2023-05-07T14:31:58;10.10;99.90
15133;DHT22;7667;51.232;17.110;2023-05-07T14:34:26;10.20;99.90
15133;DHT22;7667;51.232;17.110;2023-05-07T14:36:53;10.30;99.90
15133;DHT22;7667;51.232;17.110;2023-05-07T14:39:21;10.30;99.90
15133;DHT22;7667;51.232;17.110;2023-05-07T14:41:49;10.30;99.90
15133;DHT22;7667;51.232;17.110;2023-05-07T14:44:16;10.40;99.90
15133;DHT22;7667;51.232;17.110;2023-05-07T14:46:44;10.40;99.90
15133;DHT22;7667;51.232;17.110;2023-05-07T14:49:13;10.40;99.90
15133;DHT22;7667;51.232;17.110;2023-05-07T14:51:45;10.50;99.90
15133;DHT22;7667;51.232;17.110;2023-05-07T14:54:13;10.50;99.90
15133;DHT22;7667;51.232;17.110;2023-05-07T14:56:42;10.60;99.90
15133;DHT22;7667;51.232;17.110;2023-05-07T14:59:09;10.70;99.90
15133;DHT22;7667;51.232;17.110;2023-05-07T15:01:38;10.60;99.90
15133;DHT22;7667;51.232;17.110;2023-05-07T15:04:07;10.60;99.90
15133;DHT22;7667;51.232;17.110;2023-05-07T15:06:35;10.70;99.90
15133;DHT22;7667;51.232;17.110;2023-05-07T15:09:02;10.90;99.90
15133;DHT22;7667;51.232;17.110;2023-05-07T15:11:30;11.10;99.90
15133;DHT22;7667;51.232;17.110;2023-05-07T15:13:58;11.20;99.90
15133;DHT22;7667;51.232;17.110;2023-05-07T15:16:26;11.10;99.90
15133;DHT22;7667;51.232;17.110;2023-05-07T15:18:53;11.10;99.90
15133;DHT22;7667;51.232;17.110;2023-05-07T15:21:21;11.00;99.90
15133;DHT22;7667;51.232;17.110;2023-05-07T15:23:48;10.90;99.90
15133;DHT22;7667;51.232;17.110;2023-05-07T15:26:16;10.80;99.90
15133;DHT22;7667;51.232;17.110;2023-05-07T15:28:43;10.70;99.90
15133;DHT22;7667;51.232;17.110;2023-05-07T15:31:11;10.60;99.90
15133;DHT22;7667;51.232;17.110;2023-05-07T15:33:38;10.70;99.90
15133;DHT22;7667;51.232;17.110;2023-05-07T15:36:07;10.80;99.90
15133;DHT22;7667;51.232;17.110;2023-05-07T15:38:35;10.80;99.90
15133;DHT22;7667;51.232;17.110;2023-05-07T15:41:03;10.60;99.90
15133;DHT22;7667;51.232;17.110;2023-05-07T15:43:30;10.60;99.90
15133;DHT22;7667;51.232;17.110;2023-05-07T15:45:58;10.60;99.90
15133;DHT22;7667;51.232;17.110;2023-05-07T15:48:27;10.50;99.90
15133;DHT22;7667;51.232;17.110;2023-05-07T15:50:55;10.50;99.90
15133;DHT22;7667;51.232;17.110;2023-05-07T15:53:22;10.40;99.90
15133;DHT22;7667;51.232;17.110;2023-05-07T15:55:50;10.30;99.90
15133;DHT22;7667;51.232;17.110;2023-05-07T15:58:17;10.20;99.90
15133;DHT22;7667;51.232;17.110;2023-05-07T16:00:47;10.30;99.90
15133;DHT22;7667;51.232;17.110;2023-05-07T16:03:14;10.30;99.90